sensor_id;sensor_type;location;lat;lon;timestamp;P1;durP1;ratioP1;P2;durP2;ratioP2
74415;SDS011;62850;42.428;25.618;2024-01-30T00:01:04;6.70;;;2.33;;
74415;SDS011;62850;42.428;25.618;2024-01-30T00:03:30;6.07;;;2.92;;
74415;SDS011;62850;42.428;25.618;2024-01-30T00:05:55;5.78;;;2.55;;
74415;SDS011;62850;42.428;25.618;2024-01-30T00:08:21;6.00;;;2.45;;
74415;SDS011;62850;42.428;25.618;2024-01-30T00:10:46;6.20;;;2.85;;
74415;SDS011;62850;42.428;25.618;2024-01-30T00:13:11;6.47;;;2.58;;
74415;SDS011;62850;42.428;25.618;2024-01-30T00:15:39;6.63;;;2.80;;
74415;SDS011;62850;42.428;25.618;2024-01-30T00:18:04;7.18;;;2.92;;
74415;SDS011;62850;42.428;25.618;2024-01-30T00:20:29;5.65;;;2.22;;
74415;SDS011;62850;42.428;25.618;2024-01-30T00:22:55;9.02;;;3.53;;
74415;SDS011;62850;42.428;25.618;2024-01-30T00:25:20;6.78;;;3.08;;
74415;SDS011;62850;42.428;25.618;2024-01-30T00:27:46;6.05;;;2.88;;
74415;SDS011;62850;42.428;25.618;2024-01-30T00:30:11;7.38;;;3.17;;
74415;SDS011;62850;42.428;25.618;2024-01-30T00:32:37;8.07;;;3.30;;
74415;SDS011;62850;42.428;25.618;2024-01-30T00:35:03;8.25;;;3.53;;
74415;SDS011;62850;42.428;25.618;2024-01-30T00:37:28;8.02;;;3.13;;
74415;SDS011;62850;42.428;25.618;2024-01-30T00:39:54;7.20;;;3.15;;
74415;SDS011;62850;42.428;25.618;2024-01-30T00:42:19;8.13;;;3.00;;
74415;SDS011;62850;42.428;25.618;2024-01-30T00:44:44;5.63;;;2.60;;
74415;SDS011;62850;42.428;25.618;2024-01-30T00:47:10;8.77;;;3.03;;
74415;SDS011;62850;42.428;25.618;2024-01-30T00:49:36;8.23;;;3.38;;
74415;SDS011;62850;42.428;25.618;2024-01-30T00:52:01;5.70;;;2.50;;
74415;SDS011;62850;42.428;25.618;2024-01-30T00:54:27;7.45;;;3.15;;
74415;SDS011;62850;42.428;25.618;2024-01-30T00:56:52;7.32;;;3.20;;
74415;SDS011;62850;42.428;25.618;2024-01-30T00:59:18;7.75;;;4.00;;
74415;SDS011;62850;42.428;25.618;2024-01-30T01:01:43;7.30;;;2.92;;
74415;SDS011;62850;42.428;25.618;2024-01-30T01:04:08;7.45;;;3.53;;
74415;SDS011;62850;42.428;25.618;2024-01-30T01:06:34;9.32;;;3.50;;
74415;SDS011;62850;42.428;25.618;2024-01-30T01:08:59;10.20;;;3.13;;
74415;SDS011;62850;42.428;25.618;2024-01-30T01:11:24;7.97;;;3.60;;
74415;SDS011;62850;42.428;25.618;2024-01-30T01:13:50;5.90;;;2.65;;
74415;SDS011;62850;42.428;25.618;2024-01-30T01:16:15;6.45;;;3.28;;
74415;SDS011;62850;42.428;25.618;2024-01-30T01:18:41;8.85;;;3.88;;
74415;SDS011;62850;42.428;25.618;2024-01-30T01:21:06;7.80;;;3.10;;
74415;SDS011;62850;42.428;25.618;2024-01-30T01:23:32;8.23;;;3.80;;
74415;SDS011;62850;42.428;25.618;2024-01-30T01:25:57;7.35;;;3.22;;
74415;SDS011;62850;42.428;25.618;2024-01-30T01:28:24;5.68;;;2.58;;
74415;SDS011;62850;42.428;25.618;2024-01-30T01:30:50;6.30;;;2.95;;
74415;SDS011;62850;42.428;25.618;2024-01-30T01:33:16;9.20;;;3.05;;
74415;SDS011;62850;42.428;25.618;2024-01-30T01:35:42;6.10;;;2.90;;
74415;SDS011;62850;42.428;25.618;2024-01-30T01:38:07;6.72;;;2.63;;
74415;SDS011;62850;42.428;25.618;2024-01-30T01:40:33;9.05;;;3.53;;
74415;SDS011;62850;42.428;25.618;2024-01-30T01:42:58;7.63;;;3.30;;
74415;SDS011;62850;42.428;25.618;2024-01-30T01:45:27;7.63;;;3.55;;
74415;SDS011;62850;42.428;25.618;2024-01-30T01:47:53;7.68;;;3.22;;
74415;SDS011;62850;42.428;25.618;2024-01-30T01:50:19;6.40;;;2.22;;
74415;SDS011;62850;42.428;25.618;2024-01-30T01:52:49;8.27;;;3.63;;
74415;SDS011;62850;42.428;25.618;2024-01-30T01:55:15;6.32;;;3.15;;
74415;SDS011;62850;42.428;25.618;2024-01-30T01:57:43;8.10;;;2.80;;
74415;SDS011;62850;42.428;25.618;2024-01-30T02:00:09;7.18;;;2.88;;
74415;SDS011;62850;42.428;25.618;2024-01-30T02:02:36;6.38;;;2.95;;
74415;SDS011;62850;42.428;25.618;2024-01-30T02:05:02;8.05;;;2.92;;
74415;SDS011;62850;42.428;25.618;2024-01-30T02:07:29;6.75;;;2.90;;
74415;SDS011;62850;42.428;25.618;2024-01-30T02:09:54;7.30;;;2.70;;
74415;SDS011;62850;42.428;25.618;2024-01-30T02:12:20;6.55;;;3.00;;
74415;SDS011;62850;42.428;25.618;2024-01-30T02:14:46;7.50;;;2.88;;
74415;SDS011;62850;42.428;25.618;2024-01-30T02:17:12;7.25;;;3.42;;
74415;SDS011;62850;42.428;25.618;2024-01-30T02:19:38;6.60;;;2.83;;
74415;SDS011;62850;42.428;25.618;2024-01-30T02:22:04;7.97;;;3.75;;
74415;SDS011;62850;42.428;25.618;2024-01-30T02:24:30;8.35;;;3.72;;
74415;SDS011;62850;42.428;25.618;2024-01-30T02:26:56;7.28;;;3.28;;
74415;SDS011;62850;42.428;25.618;2024-01-30T02:29:21;8.32;;;3.40;;
74415;SDS011;62850;42.428;25.618;2024-01-30T02:31:47;7.43;;;3.22;;
74415;SDS011;62850;42.428;25.618;2024-01-30T02:34:13;8.43;;;3.53;;
74415;SDS011;62850;42.428;25.618;2024-01-30T02:36:38;6.20;;;2.78;;
74415;SDS011;62850;42.428;25.618;2024-01-30T02:39:07;7.18;;;2.90;;
74415;SDS011;62850;42.428;25.618;2024-01-30T02:41:33;5.68;;;2.60;;
74415;SDS011;62850;42.428;25.618;2024-01-30T02:43:58;7.20;;;3.45;;
74415;SDS011;62850;42.428;25.618;2024-01-30T02:46:24;9.30;;;4.05;;
74415;SDS011;62850;42.428;25.618;2024-01-30T02:48:49;6.63;;;3.20;;
74415;SDS011;62850;42.428;25.618;2024-01-30T02:51:15;11.18;;;4.25;;
74415;SDS011;62850;42.428;25.618;2024-01-30T02:53:40;10.60;;;3.60;;
74415;SDS011;62850;42.428;25.618;2024-01-30T02:56:05;9.48;;;3.85;;
74415;SDS011;62850;42.428;25.618;2024-01-30T02:58:34;8.60;;;3.30;;
74415;SDS011;62850;42.428;25.618;2024-01-30T03:01:00;6.78;;;3.38;;
74415;SDS011;62850;42.428;25.618;2024-01-30T03:03:25;5.32;;;2.47;;
74415;SDS011;62850;42.428;25.618;2024-01-30T03:05:51;10.15;;;4.20;;
74415;SDS011;62850;42.428;25.618;2024-01-30T03:08:16;9.20;;;3.65;;
74415;SDS011;62850;42.428;25.618;2024-01-30T03:10:42;9.93;;;3.80;;
74415;SDS011;62850;42.428;25.618;2024-01-30T03:13:07;7.65;;;3.38;;
74415;SDS011;62850;42.428;25.618;2024-01-30T03:15:32;8.15;;;3.42;;
74415;SDS011;62850;42.428;25.618;2024-01-30T03:17:58;7.50;;;3.20;;
74415;SDS011;62850;42.428;25.618;2024-01-30T03:20:23;7.43;;;3.55;;
74415;SDS011;62850;42.428;25.618;2024-01-30T03:22:49;8.00;;;3.20;;
74415;SDS011;62850;42.428;25.618;2024-01-30T03:25:14;8.38;;;3.65;;
74415;SDS011;62850;42.428;25.618;2024-01-30T03:27:40;7.28;;;3.17;;
74415;SDS011;62850;42.428;25.618;2024-01-30T03:30:06;4.30;;;1.98;;
74415;SDS011;62850;42.428;25.618;2024-01-30T03:32:32;8.05;;;3.20;;
74415;SDS011;62850;42.428;25.618;2024-01-30T03:34:57;7.97;;;3.63;;
74415;SDS011;62850;42.428;25.618;2024-01-30T03:37:23;6.50;;;3.28;;
74415;SDS011;62850;42.428;25.618;2024-01-30T03:39:49;9.30;;;3.67;;
74415;SDS011;62850;42.428;25.618;2024-01-30T03:42:14;8.65;;;3.17;;
74415;SDS011;62850;42.428;25.618;2024-01-30T03:44:40;8.95;;;3.78;;
74415;SDS011;62850;42.428;25.618;2024-01-30T03:47:05;9.45;;;4.43;;
74415;SDS011;62850;42.428;25.618;2024-01-30T03:49:31;8.10;;;3.53;;
74415;SDS011;62850;42.428;25.618;2024-01-30T03:51:56;9.63;;;3.63;;
74415;SDS011;62850;42.428;25.618;2024-01-30T03:54:21;7.15;;;2.72;;
74415;SDS011;62850;42.428;25.618;2024-01-30T03:56:47;10.45;;;4.57;;
74415;SDS011;62850;42.428;25.618;2024-01-30T03:59:12;13.27;;;4.80;;
74415;SDS011;62850;42.428;25.618;2024-01-30T04:01:38;11.18;;;3.97;;
74415;SDS011;62850;42.428;25.618;2024-01-30T04:04:03;9.25;;;3.85;;
74415;SDS011;62850;42.428;25.618;2024-01-30T04:06:29;9.45;;;4.63;;
74415;SDS011;62850;42.428;25.618;2024-01-30T04:08:54;10.32;;;4.88;;
74415;SDS011;62850;42.428;25.618;2024-01-30T04:11:19;11.70;;;4.53;;
74415;SDS011;62850;42.428;25.618;2024-01-30T04:13:45;10.75;;;4.38;;
74415;SDS011;62850;42.428;25.618;2024-01-30T04:16:19;9.52;;;4.40;;
74415;SDS011;62850;42.428;25.618;2024-01-30T04:18:47;11.80;;;3.63;;
74415;SDS011;62850;42.428;25.618;2024-01-30T04:21:12;10.50;;;4.63;;
74415;SDS011;62850;42.428;25.618;2024-01-30T04:23:37;10.50;;;4.30;;
74415;SDS011;62850;42.428;25.618;2024-01-30T04:26:05;10.93;;;4.63;;
74415;SDS011;62850;42.428;25.618;2024-01-30T04:28:30;11.98;;;4.25;;
74415;SDS011;62850;42.428;25.618;2024-01-30T04:30:56;7.88;;;3.38;;
74415;SDS011;62850;42.428;25.618;2024-01-30T04:33:21;9.15;;;4.60;;
74415;SDS011;62850;42.428;25.618;2024-01-30T04:35:46;9.63;;;4.13;;
74415;SDS011;62850;42.428;25.618;2024-01-30T04:38:12;9.77;;;4.15;;
74415;SDS011;62850;42.428;25.618;2024-01-30T04:40:38;11.18;;;4.63;;
74415;SDS011;62850;42.428;25.618;2024-01-30T04:43:04;9.77;;;4.30;;
74415;SDS011;62850;42.428;25.618;2024-01-30T04:45:29;11.60;;;4.90;;
74415;SDS011;62850;42.428;25.618;2024-01-30T04:47:55;12.23;;;4.93;;
74415;SDS011;62850;42.428;25.618;2024-01-30T04:50:20;12.20;;;4.57;;
74415;SDS011;62850;42.428;25.618;2024-01-30T04:52:45;12.05;;;5.10;;
74415;SDS011;62850;42.428;25.618;2024-01-30T04:55:11;6.97;;;3.22;;
74415;SDS011;62850;42.428;25.618;2024-01-30T04:57:36;13.35;;;5.38;;
74415;SDS011;62850;42.428;25.618;2024-01-30T05:00:02;12.07;;;4.50;;
74415;SDS011;62850;42.428;25.618;2024-01-30T05:02:28;9.90;;;4.20;;
74415;SDS011;62850;42.428;25.618;2024-01-30T05:04:53;10.23;;;5.05;;
74415;SDS011;62850;42.428;25.618;2024-01-30T05:07:19;17.80;;;6.65;;
74415;SDS011;62850;42.428;25.618;2024-01-30T05:09:45;19.23;;;7.30;;
74415;SDS011;62850;42.428;25.618;2024-01-30T05:12:10;8.25;;;4.30;;
74415;SDS011;62850;42.428;25.618;2024-01-30T05:14:36;12.23;;;4.25;;
74415;SDS011;62850;42.428;25.618;2024-01-30T05:17:01;10.23;;;4.57;;
74415;SDS011;62850;42.428;25.618;2024-01-30T05:19:28;11.93;;;5.95;;
74415;SDS011;62850;42.428;25.618;2024-01-30T05:21:53;12.82;;;5.38;;
74415;SDS011;62850;42.428;25.618;2024-01-30T05:24:19;10.32;;;4.50;;
74415;SDS011;62850;42.428;25.618;2024-01-30T05:26:44;11.10;;;5.13;;
74415;SDS011;62850;42.428;25.618;2024-01-30T05:29:10;13.88;;;5.60;;
74415;SDS011;62850;42.428;25.618;2024-01-30T05:31:35;10.73;;;4.85;;
74415;SDS011;62850;42.428;25.618;2024-01-30T05:34:01;11.75;;;4.18;;
74415;SDS011;62850;42.428;25.618;2024-01-30T05:36:26;12.20;;;4.78;;
74415;SDS011;62850;42.428;25.618;2024-01-30T05:38:52;13.57;;;5.20;;
74415;SDS011;62850;42.428;25.618;2024-01-30T05:41:17;11.10;;;5.35;;
74415;SDS011;62850;42.428;25.618;2024-01-30T05:43:43;14.20;;;5.53;;
74415;SDS011;62850;42.428;25.618;2024-01-30T05:46:09;14.57;;;7.32;;
74415;SDS011;62850;42.428;25.618;2024-01-30T05:48:34;11.07;;;4.80;;
74415;SDS011;62850;42.428;25.618;2024-01-30T05:51:00;13.32;;;6.15;;
74415;SDS011;62850;42.428;25.618;2024-01-30T05:53:26;13.10;;;5.10;;
74415;SDS011;62850;42.428;25.618;2024-01-30T05:55:52;12.15;;;4.55;;
74415;SDS011;62850;42.428;25.618;2024-01-30T05:58:17;11.38;;;4.95;;
74415;SDS011;62850;42.428;25.618;2024-01-30T06:00:43;11.45;;;5.03;;
74415;SDS011;62850;42.428;25.618;2024-01-30T06:03:08;11.27;;;4.85;;
74415;SDS011;62850;42.428;25.618;2024-01-30T06:05:34;10.07;;;4.53;;
74415;SDS011;62850;42.428;25.618;2024-01-30T06:07:59;16.23;;;5.68;;
74415;SDS011;62850;42.428;25.618;2024-01-30T06:10:24;11.98;;;4.65;;
74415;SDS011;62850;42.428;25.618;2024-01-30T06:12:50;14.88;;;6.50;;
74415;SDS011;62850;42.428;25.618;2024-01-30T06:15:15;12.55;;;5.90;;
74415;SDS011;62850;42.428;25.618;2024-01-30T06:17:41;10.30;;;4.47;;
74415;SDS011;62850;42.428;25.618;2024-01-30T06:20:07;15.70;;;6.60;;
74415;SDS011;62850;42.428;25.618;2024-01-30T06:22:32;11.38;;;4.75;;
74415;SDS011;62850;42.428;25.618;2024-01-30T06:24:58;11.00;;;4.75;;
74415;SDS011;62850;42.428;25.618;2024-01-30T06:27:23;12.07;;;5.20;;
74415;SDS011;62850;42.428;25.618;2024-01-30T06:29:48;12.27;;;5.25;;
74415;SDS011;62850;42.428;25.618;2024-01-30T06:32:14;14.18;;;5.53;;
74415;SDS011;62850;42.428;25.618;2024-01-30T06:34:40;8.60;;;3.38;;
74415;SDS011;62850;42.428;25.618;2024-01-30T06:37:06;10.15;;;4.93;;
74415;SDS011;62850;42.428;25.618;2024-01-30T06:39:31;11.70;;;4.65;;
74415;SDS011;62850;42.428;25.618;2024-01-30T06:41:57;12.93;;;3.90;;
74415;SDS011;62850;42.428;25.618;2024-01-30T06:44:22;10.05;;;4.55;;
74415;SDS011;62850;42.428;25.618;2024-01-30T06:46:48;12.80;;;5.97;;
74415;SDS011;62850;42.428;25.618;2024-01-30T06:49:13;9.57;;;4.53;;
74415;SDS011;62850;42.428;25.618;2024-01-30T06:51:38;9.05;;;4.63;;
74415;SDS011;62850;42.428;25.618;2024-01-30T06:54:04;7.07;;;3.38;;
74415;SDS011;62850;42.428;25.618;2024-01-30T06:56:30;12.35;;;5.32;;
74415;SDS011;62850;42.428;25.618;2024-01-30T06:58:55;13.35;;;5.72;;
74415;SDS011;62850;42.428;25.618;2024-01-30T07:01:20;10.43;;;4.95;;
74415;SDS011;62850;42.428;25.618;2024-01-30T07:03:52;15.38;;;5.00;;
74415;SDS011;62850;42.428;25.618;2024-01-30T07:06:18;14.70;;;5.65;;
74415;SDS011;62850;42.428;25.618;2024-01-30T07:08:45;14.85;;;6.28;;
74415;SDS011;62850;42.428;25.618;2024-01-30T07:11:10;14.77;;;5.97;;
74415;SDS011;62850;42.428;25.618;2024-01-30T07:13:37;11.05;;;4.35;;
74415;SDS011;62850;42.428;25.618;2024-01-30T07:16:02;8.45;;;3.50;;
74415;SDS011;62850;42.428;25.618;2024-01-30T07:18:29;14.05;;;5.88;;
74415;SDS011;62850;42.428;25.618;2024-01-30T07:20:55;10.20;;;4.90;;
74415;SDS011;62850;42.428;25.618;2024-01-30T07:23:20;10.82;;;4.80;;
74415;SDS011;62850;42.428;25.618;2024-01-30T07:25:46;16.95;;;4.53;;
74415;SDS011;62850;42.428;25.618;2024-01-30T07:28:14;9.57;;;4.18;;
74415;SDS011;62850;42.428;25.618;2024-01-30T07:30:43;11.75;;;4.60;;
74415;SDS011;62850;42.428;25.618;2024-01-30T07:33:08;9.25;;;3.83;;
74415;SDS011;62850;42.428;25.618;2024-01-30T07:35:34;8.57;;;3.70;;
74415;SDS011;62850;42.428;25.618;2024-01-30T07:38:00;8.65;;;3.10;;
74415;SDS011;62850;42.428;25.618;2024-01-30T07:40:26;6.13;;;2.60;;
74415;SDS011;62850;42.428;25.618;2024-01-30T07:42:52;10.57;;;3.83;;
74415;SDS011;62850;42.428;25.618;2024-01-30T07:45:19;6.55;;;2.88;;
74415;SDS011;62850;42.428;25.618;2024-01-30T07:47:48;9.02;;;4.05;;
74415;SDS011;62850;42.428;25.618;2024-01-30T07:50:14;7.95;;;3.88;;
74415;SDS011;62850;42.428;25.618;2024-01-30T07:52:39;8.18;;;3.38;;
74415;SDS011;62850;42.428;25.618;2024-01-30T07:55:05;10.95;;;3.78;;
74415;SDS011;62850;42.428;25.618;2024-01-30T07:57:32;9.40;;;3.50;;
74415;SDS011;62850;42.428;25.618;2024-01-30T07:59:59;9.32;;;4.15;;
74415;SDS011;62850;42.428;25.618;2024-01-30T08:02:24;9.30;;;4.15;;
74415;SDS011;62850;42.428;25.618;2024-01-30T08:04:50;7.40;;;3.13;;
74415;SDS011;62850;42.428;25.618;2024-01-30T08:07:15;7.60;;;3.20;;
74415;SDS011;62850;42.428;25.618;2024-01-30T08:09:42;6.47;;;3.33;;
74415;SDS011;62850;42.428;25.618;2024-01-30T08:12:08;8.75;;;3.35;;
74415;SDS011;62850;42.428;25.618;2024-01-30T08:14:33;7.72;;;3.35;;
74415;SDS011;62850;42.428;25.618;2024-01-30T08:16:59;6.93;;;3.33;;
74415;SDS011;62850;42.428;25.618;2024-01-30T08:19:24;9.00;;;2.63;;
74415;SDS011;62850;42.428;25.618;2024-01-30T08:21:49;6.10;;;2.83;;
74415;SDS011;62850;42.428;25.618;2024-01-30T08:24:15;9.70;;;4.90;;
74415;SDS011;62850;42.428;25.618;2024-01-30T08:26:40;6.00;;;2.40;;
74415;SDS011;62850;42.428;25.618;2024-01-30T08:29:06;6.25;;;2.45;;
74415;SDS011;62850;42.428;25.618;2024-01-30T08:31:31;5.88;;;2.63;;
74415;SDS011;62850;42.428;25.618;2024-01-30T08:33:57;5.03;;;2.03;;
74415;SDS011;62850;42.428;25.618;2024-01-30T08:36:22;6.88;;;2.65;;
74415;SDS011;62850;42.428;25.618;2024-01-30T08:38:48;7.47;;;2.85;;
74415;SDS011;62850;42.428;25.618;2024-01-30T08:41:13;6.38;;;2.72;;
74415;SDS011;62850;42.428;25.618;2024-01-30T08:43:39;7.15;;;3.00;;
74415;SDS011;62850;42.428;25.618;2024-01-30T08:46:04;7.35;;;2.35;;
74415;SDS011;62850;42.428;25.618;2024-01-30T08:48:30;9.38;;;3.08;;
74415;SDS011;62850;42.428;25.618;2024-01-30T08:50:55;21.08;;;4.30;;
74415;SDS011;62850;42.428;25.618;2024-01-30T08:53:21;10.10;;;3.85;;
74415;SDS011;62850;42.428;25.618;2024-01-30T08:55:47;7.72;;;2.65;;
74415;SDS011;62850;42.428;25.618;2024-01-30T08:58:12;7.35;;;3.15;;
74415;SDS011;62850;42.428;25.618;2024-01-30T09:00:38;5.70;;;2.60;;
74415;SDS011;62850;42.428;25.618;2024-01-30T09:03:03;5.63;;;2.60;;
74415;SDS011;62850;42.428;25.618;2024-01-30T09:05:29;7.25;;;2.80;;
74415;SDS011;62850;42.428;25.618;2024-01-30T09:07:54;7.35;;;2.90;;
74415;SDS011;62850;42.428;25.618;2024-01-30T09:10:20;7.82;;;2.85;;
74415;SDS011;62850;42.428;25.618;2024-01-30T09:12:46;6.53;;;3.15;;
74415;SDS011;62850;42.428;25.618;2024-01-30T09:15:11;8.07;;;2.88;;
74415;SDS011;62850;42.428;25.618;2024-01-30T09:17:37;7.78;;;2.92;;
74415;SDS011;62850;42.428;25.618;2024-01-30T09:20:02;7.60;;;3.05;;
74415;SDS011;62850;42.428;25.618;2024-01-30T09:22:28;5.22;;;2.40;;
74415;SDS011;62850;42.428;25.618;2024-01-30T09:24:54;9.70;;;3.40;;
74415;SDS011;62850;42.428;25.618;2024-01-30T09:27:19;9.25;;;3.30;;
74415;SDS011;62850;42.428;25.618;2024-01-30T09:29:45;6.30;;;2.92;;
74415;SDS011;62850;42.428;25.618;2024-01-30T09:32:10;6.32;;;2.90;;
74415;SDS011;62850;42.428;25.618;2024-01-30T09:34:36;5.68;;;2.47;;
74415;SDS011;62850;42.428;25.618;2024-01-30T09:37:01;6.70;;;3.20;;
74415;SDS011;62850;42.428;25.618;2024-01-30T09:39:27;5.95;;;2.63;;
74415;SDS011;62850;42.428;25.618;2024-01-30T09:42:00;7.90;;;3.38;;
74415;SDS011;62850;42.428;25.618;2024-01-30T09:44:36;6.60;;;2.80;;
74415;SDS011;62850;42.428;25.618;2024-01-30T09:47:03;6.45;;;2.80;;
74415;SDS011;62850;42.428;25.618;2024-01-30T09:49:34;6.13;;;2.80;;
74415;SDS011;62850;42.428;25.618;2024-01-30T09:52:02;8.63;;;2.35;;
74415;SDS011;62850;42.428;25.618;2024-01-30T09:54:31;8.32;;;3.50;;
74415;SDS011;62850;42.428;25.618;2024-01-30T09:56:57;7.65;;;2.95;;
74415;SDS011;62850;42.428;25.618;2024-01-30T09:59:23;6.60;;;2.90;;
74415;SDS011;62850;42.428;25.618;2024-01-30T10:01:49;7.18;;;3.35;;
74415;SDS011;62850;42.428;25.618;2024-01-30T10:04:16;10.55;;;4.57;;
74415;SDS011;62850;42.428;25.618;2024-01-30T10:06:41;10.23;;;3.40;;
74415;SDS011;62850;42.428;25.618;2024-01-30T10:09:07;8.70;;;2.97;;
74415;SDS011;62850;42.428;25.618;2024-01-30T10:11:33;8.90;;;2.97;;
74415;SDS011;62850;42.428;25.618;2024-01-30T10:14:00;9.35;;;3.70;;
74415;SDS011;62850;42.428;25.618;2024-01-30T10:16:25;9.77;;;3.28;;
74415;SDS011;62850;42.428;25.618;2024-01-30T10:18:51;7.35;;;3.15;;
74415;SDS011;62850;42.428;25.618;2024-01-30T10:21:16;7.38;;;3.35;;
74415;SDS011;62850;42.428;25.618;2024-01-30T10:23:43;8.02;;;3.10;;
74415;SDS011;62850;42.428;25.618;2024-01-30T10:26:09;12.02;;;2.95;;
74415;SDS011;62850;42.428;25.618;2024-01-30T10:28:35;8.05;;;2.80;;
74415;SDS011;62850;42.428;25.618;2024-01-30T10:31:00;6.22;;;2.75;;
74415;SDS011;62850;42.428;25.618;2024-01-30T10:33:27;10.10;;;4.00;;
74415;SDS011;62850;42.428;25.618;2024-01-30T10:35:54;7.35;;;2.85;;
74415;SDS011;62850;42.428;25.618;2024-01-30T10:38:25;5.55;;;2.30;;
74415;SDS011;62850;42.428;25.618;2024-01-30T10:40:56;7.13;;;3.53;;
74415;SDS011;62850;42.428;25.618;2024-01-30T10:43:23;6.93;;;3.15;;
74415;SDS011;62850;42.428;25.618;2024-01-30T10:45:54;6.97;;;2.90;;
74415;SDS011;62850;42.428;25.618;2024-01-30T10:48:23;4.65;;;2.28;;
74415;SDS011;62850;42.428;25.618;2024-01-30T10:50:54;7.03;;;3.03;;
74415;SDS011;62850;42.428;25.618;2024-01-30T10:53:22;5.68;;;2.50;;
74415;SDS011;62850;42.428;25.618;2024-01-30T10:55:48;9.75;;;3.83;;
74415;SDS011;62850;42.428;25.618;2024-01-30T10:58:16;13.77;;;4.55;;
74415;SDS011;62850;42.428;25.618;2024-01-30T11:00:42;7.55;;;3.20;;
74415;SDS011;62850;42.428;25.618;2024-01-30T11:03:08;7.63;;;3.67;;
74415;SDS011;62850;42.428;25.618;2024-01-30T11:05:34;7.53;;;3.00;;
74415;SDS011;62850;42.428;25.618;2024-01-30T11:08:10;8.77;;;3.40;;
74415;SDS011;62850;42.428;25.618;2024-01-30T11:10:46;5.65;;;2.85;;
74415;SDS011;62850;42.428;25.618;2024-01-30T11:13:13;5.85;;;2.83;;
74415;SDS011;62850;42.428;25.618;2024-01-30T11:15:39;9.40;;;3.70;;
74415;SDS011;62850;42.428;25.618;2024-01-30T11:18:05;8.52;;;3.20;;
74415;SDS011;62850;42.428;25.618;2024-01-30T11:20:31;7.30;;;2.97;;
74415;SDS011;62850;42.428;25.618;2024-01-30T11:22:57;6.65;;;3.00;;
74415;SDS011;62850;42.428;25.618;2024-01-30T11:25:24;6.15;;;2.78;;
74415;SDS011;62850;42.428;25.618;2024-01-30T11:27:51;6.82;;;3.50;;
74415;SDS011;62850;42.428;25.618;2024-01-30T11:30:24;7.00;;;3.45;;
74415;SDS011;62850;42.428;25.618;2024-01-30T11:33:06;8.32;;;2.90;;
74415;SDS011;62850;42.428;25.618;2024-01-30T11:35:39;8.32;;;3.47;;
74415;SDS011;62850;42.428;25.618;2024-01-30T11:38:06;8.60;;;3.58;;
74415;SDS011;62850;42.428;25.618;2024-01-30T11:40:33;7.32;;;2.80;;
74415;SDS011;62850;42.428;25.618;2024-01-30T11:43:01;6.38;;;3.08;;
74415;SDS011;62850;42.428;25.618;2024-01-30T11:45:28;6.90;;;2.88;;
74415;SDS011;62850;42.428;25.618;2024-01-30T11:47:54;5.88;;;2.80;;
74415;SDS011;62850;42.428;25.618;2024-01-30T11:50:20;8.18;;;3.15;;
74415;SDS011;62850;42.428;25.618;2024-01-30T11:52:45;5.93;;;2.53;;
74415;SDS011;62850;42.428;25.618;2024-01-30T11:55:12;7.65;;;3.35;;
74415;SDS011;62850;42.428;25.618;2024-01-30T11:57:38;6.75;;;3.00;;
74415;SDS011;62850;42.428;25.618;2024-01-30T12:00:04;6.65;;;2.45;;
74415;SDS011;62850;42.428;25.618;2024-01-30T12:02:35;9.00;;;3.10;;
74415;SDS011;62850;42.428;25.618;2024-01-30T12:05:08;7.72;;;3.30;;
74415;SDS011;62850;42.428;25.618;2024-01-30T12:07:36;9.10;;;3.92;;
74415;SDS011;62850;42.428;25.618;2024-01-30T12:10:02;7.72;;;3.58;;
74415;SDS011;62850;42.428;25.618;2024-01-30T12:12:28;9.38;;;3.17;;
74415;SDS011;62850;42.428;25.618;2024-01-30T12:14:55;8.95;;;3.28;;
74415;SDS011;62850;42.428;25.618;2024-01-30T12:20:13;6.35;;;3.03;;
74415;SDS011;62850;42.428;25.618;2024-01-30T12:22:47;12.27;;;4.32;;
74415;SDS011;62850;42.428;25.618;2024-01-30T12:27:41;8.32;;;3.50;;
74415;SDS011;62850;42.428;25.618;2024-01-30T12:30:11;15.23;;;4.57;;
74415;SDS011;62850;42.428;25.618;2024-01-30T12:32:45;13.95;;;3.80;;
74415;SDS011;62850;42.428;25.618;2024-01-30T12:37:39;6.05;;;2.55;;
74415;SDS011;62850;42.428;25.618;2024-01-30T12:40:05;9.73;;;3.50;;
74415;SDS011;62850;42.428;25.618;2024-01-30T12:42:32;11.02;;;3.85;;
74415;SDS011;62850;42.428;25.618;2024-01-30T12:44:58;7.60;;;3.78;;
74415;SDS011;62850;42.428;25.618;2024-01-30T12:47:24;7.38;;;3.30;;
74415;SDS011;62850;42.428;25.618;2024-01-30T12:49:50;8.27;;;3.50;;
74415;SDS011;62850;42.428;25.618;2024-01-30T12:52:19;6.82;;;2.97;;
74415;SDS011;62850;42.428;25.618;2024-01-30T12:54:45;7.95;;;3.40;;
74415;SDS011;62850;42.428;25.618;2024-01-30T12:57:11;6.82;;;3.15;;
74415;SDS011;62850;42.428;25.618;2024-01-30T12:59:36;5.93;;;2.95;;
74415;SDS011;62850;42.428;25.618;2024-01-30T13:02:02;8.82;;;2.90;;
74415;SDS011;62850;42.428;25.618;2024-01-30T13:04:28;8.13;;;3.45;;
74415;SDS011;62850;42.428;25.618;2024-01-30T13:06:54;6.93;;;3.10;;
74415;SDS011;62850;42.428;25.618;2024-01-30T13:09:19;7.93;;;3.53;;
74415;SDS011;62850;42.428;25.618;2024-01-30T13:11:45;10.90;;;4.15;;
74415;SDS011;62850;42.428;25.618;2024-01-30T13:14:11;7.22;;;3.17;;
74415;SDS011;62850;42.428;25.618;2024-01-30T13:16:36;6.68;;;3.28;;
74415;SDS011;62850;42.428;25.618;2024-01-30T13:19:02;7.15;;;3.08;;
74415;SDS011;62850;42.428;25.618;2024-01-30T13:21:28;7.72;;;3.28;;
74415;SDS011;62850;42.428;25.618;2024-01-30T13:23:54;4.28;;;1.60;;
74415;SDS011;62850;42.428;25.618;2024-01-30T13:26:22;5.43;;;2.30;;
74415;SDS011;62850;42.428;25.618;2024-01-30T13:28:48;6.43;;;3.38;;
74415;SDS011;62850;42.428;25.618;2024-01-30T13:31:16;5.88;;;2.40;;
74415;SDS011;62850;42.428;25.618;2024-01-30T13:33:42;6.90;;;3.45;;
74415;SDS011;62850;42.428;25.618;2024-01-30T13:36:08;6.53;;;2.67;;
74415;SDS011;62850;42.428;25.618;2024-01-30T13:38:35;5.15;;;2.42;;
74415;SDS011;62850;42.428;25.618;2024-01-30T13:41:00;8.30;;;3.55;;
74415;SDS011;62850;42.428;25.618;2024-01-30T13:43:26;7.30;;;3.10;;
74415;SDS011;62850;42.428;25.618;2024-01-30T13:45:52;6.10;;;2.83;;
74415;SDS011;62850;42.428;25.618;2024-01-30T13:48:18;8.20;;;3.50;;
74415;SDS011;62850;42.428;25.618;2024-01-30T13:50:44;7.97;;;3.35;;
74415;SDS011;62850;42.428;25.618;2024-01-30T13:53:10;6.35;;;3.30;;
74415;SDS011;62850;42.428;25.618;2024-01-30T13:55:36;6.40;;;3.05;;
74415;SDS011;62850;42.428;25.618;2024-01-30T13:58:01;8.68;;;3.25;;
74415;SDS011;62850;42.428;25.618;2024-01-30T14:00:27;6.75;;;2.70;;
74415;SDS011;62850;42.428;25.618;2024-01-30T14:02:52;6.70;;;2.83;;
74415;SDS011;62850;42.428;25.618;2024-01-30T14:05:23;6.70;;;3.25;;
74415;SDS011;62850;42.428;25.618;2024-01-30T14:07:48;7.78;;;2.83;;
74415;SDS011;62850;42.428;25.618;2024-01-30T14:10:15;7.28;;;2.78;;
74415;SDS011;62850;42.428;25.618;2024-01-30T14:12:41;6.03;;;2.55;;
74415;SDS011;62850;42.428;25.618;2024-01-30T14:15:08;7.63;;;3.00;;
74415;SDS011;62850;42.428;25.618;2024-01-30T14:17:35;8.02;;;3.40;;
74415;SDS011;62850;42.428;25.618;2024-01-30T14:20:01;7.50;;;3.38;;
74415;SDS011;62850;42.428;25.618;2024-01-30T14:22:28;8.45;;;3.30;;
74415;SDS011;62850;42.428;25.618;2024-01-30T14:24:53;7.78;;;3.13;;
74415;SDS011;62850;42.428;25.618;2024-01-30T14:27:19;7.93;;;3.33;;
74415;SDS011;62850;42.428;25.618;2024-01-30T14:29:44;8.05;;;3.40;;
74415;SDS011;62850;42.428;25.618;2024-01-30T14:32:10;7.55;;;2.92;;